createdAt,value
2022-10-02T00:03:12.286Z,3.00
2022-10-02T00:06:28.918Z,3.00
2022-10-02T00:10:21.662Z,3.00
2022-10-02T00:13:50.259Z,2.90
2022-10-02T00:17:23.125Z,2.80
2022-10-02T00:21:30.410Z,2.50
2022-10-02T00:24:58.605Z,2.30
2022-10-02T00:28:40.419Z,2.60
2022-10-02T00:32:15.291Z,2.00
2022-10-02T00:35:36.388Z,2.60
2022-10-02T00:39:30.323Z,2.00
2022-10-02T00:43:11.357Z,2.20
2022-10-02T00:46:33.821Z,2.10
2022-10-02T00:50:06.550Z,2.20
2022-10-02T00:53:56.874Z,2.30
2022-10-02T00:57:28.485Z,2.30
2022-10-02T01:01:14.352Z,2.10
2022-10-02T01:04:37.080Z,2.60
2022-10-02T01:08:05.184Z,2.30
2022-10-02T01:11:41.840Z,2.30
2022-10-02T01:15:21.165Z,2.20
2022-10-02T01:18:55.394Z,2.50
2022-10-02T01:22:36.379Z,3.00
2022-10-02T01:26:09.404Z,2.20
2022-10-02T01:29:49.837Z,2.20
2022-10-02T01:33:23.254Z,2.20
2022-10-02T01:36:59.497Z,2.50
2022-10-02T01:40:39.132Z,2.10
2022-10-02T01:44:14.766Z,2.60
2022-10-02T01:48:01.397Z,2.60
2022-10-02T01:51:45.026Z,2.30
2022-10-02T01:55:11.294Z,2.00
2022-10-02T01:59:08.620Z,1.80
2022-10-02T02:02:41.929Z,1.80
2022-10-02T02:05:55.348Z,2.70
2022-10-02T02:09:59.439Z,1.90
2022-10-02T02:13:38.163Z,1.40
2022-10-02T02:16:56.295Z,1.50
2022-10-02T02:20:31.222Z,2.00
2022-10-02T02:24:07.992Z,1.90
2022-10-02T02:27:46.356Z,1.90
2022-10-02T02:31:21.720Z,1.60
2022-10-02T02:35:02.241Z,1.70
2022-10-02T02:38:53.129Z,1.40
2022-10-02T02:42:13.601Z,1.40
2022-10-02T02:45:50.691Z,1.20
2022-10-02T02:49:20.307Z,1.30
2022-10-02T02:53:04.505Z,1.20
2022-10-02T02:56:34.917Z,1.00
2022-10-02T03:00:12.751Z,0.90
2022-10-02T03:03:47.878Z,1.20
2022-10-02T03:07:24.272Z,1.10
2022-10-02T03:11:15.983Z,1.30
2022-10-02T03:14:59.499Z,1.60
2022-10-02T03:18:48.374Z,1.10
2022-10-02T03:22:26.674Z,1.00
2022-10-02T03:29:27.188Z,1.00
2022-10-02T03:32:53.842Z,1.60
2022-10-02T03:36:30.260Z,1.00
2022-10-02T03:40:06.955Z,1.40
2022-10-02T03:43:42.886Z,1.60
2022-10-02T03:47:19.570Z,0.90
2022-10-02T03:50:56.153Z,1.70
2022-10-02T03:54:39.324Z,1.20
2022-10-02T03:58:14.595Z,1.10
2022-10-02T04:01:52.235Z,1.30
2022-10-02T04:05:26.882Z,1.20
2022-10-02T04:09:09.394Z,1.30
2022-10-02T04:12:42.045Z,1.20
2022-10-02T04:16:19.044Z,1.00
2022-10-02T04:20:12.751Z,0.80
2022-10-02T04:23:33.478Z,0.90
2022-10-02T04:27:16.162Z,0.80
2022-10-02T04:30:41.522Z,0.70
2022-10-02T04:34:17.850Z,0.80
2022-10-02T04:38:07.525Z,0.80
2022-10-02T04:41:56.013Z,0.90
2022-10-02T04:45:45.228Z,0.70
2022-10-02T04:52:28.749Z,1.60
2022-10-02T04:56:05.825Z,0.70
2022-10-02T05:00:02.879Z,1.40
2022-10-02T05:03:37.324Z,0.80
2022-10-02T05:07:07.350Z,0.70
2022-10-02T05:10:36.370Z,0.70
2022-10-02T05:14:09.192Z,0.50
2022-10-02T05:18:21.419Z,0.50
2022-10-02T05:21:49.294Z,1.40
2022-10-02T05:25:29.771Z,1.00
2022-10-02T05:28:48.856Z,1.30
2022-10-02T05:32:34.631Z,1.70
2022-10-02T05:35:53.515Z,1.00
2022-10-02T05:39:37.653Z,0.70
2022-10-02T05:43:15.745Z,1.10
2022-10-02T05:46:50.072Z,0.70
2022-10-02T05:50:33.904Z,0.80
2022-10-02T05:54:04.984Z,1.00
2022-10-02T05:57:57.467Z,0.70
2022-10-02T06:01:18.019Z,1.40
2022-10-02T06:04:57.635Z,0.90
2022-10-02T06:09:20.284Z,1.30
2022-10-02T06:12:31.750Z,1.40
2022-10-02T06:16:10.953Z,1.10
2022-10-02T06:19:41.155Z,1.40
2022-10-02T06:23:18.682Z,1.40
2022-10-02T06:27:15.820Z,1.50
2022-10-02T06:30:25.558Z,1.70
2022-10-02T06:34:02.048Z,1.70
2022-10-02T06:37:54.057Z,2.10
2022-10-02T06:41:36.901Z,1.20
2022-10-02T06:44:59.267Z,1.90
2022-10-02T06:48:48.646Z,1.40
2022-10-02T06:52:24.831Z,1.50
2022-10-02T06:55:59.602Z,1.90
2022-10-02T06:59:32.043Z,2.00
2022-10-02T07:03:31.355Z,1.60
2022-10-02T07:06:57.853Z,1.70
2022-10-02T07:10:18.294Z,1.70
2022-10-02T07:13:49.496Z,2.10
2022-10-02T07:17:41.892Z,1.80
2022-10-02T07:21:39.765Z,1.80
2022-10-02T07:25:25.713Z,1.60
2022-10-02T07:28:44.302Z,1.70
2022-10-02T07:32:39.551Z,1.30
2022-10-02T07:36:17.981Z,1.10
2022-10-02T07:39:29.212Z,1.00
2022-10-02T07:43:13.156Z,1.40
2022-10-02T07:47:07.210Z,1.40
2022-10-02T07:50:37.119Z,1.50
2022-10-02T07:53:55.793Z,1.30
2022-10-02T07:57:44.637Z,1.60
2022-10-02T08:01:11.346Z,2.00
2022-10-02T08:04:39.733Z,1.90
2022-10-02T08:08:25.254Z,2.00
2022-10-02T08:11:58.173Z,1.50
2022-10-02T08:15:36.219Z,1.50
2022-10-02T08:19:14.143Z,1.10
2022-10-02T08:22:48.213Z,1.40
2022-10-02T08:26:38.771Z,1.30
2022-10-02T08:30:03.850Z,1.20
2022-10-02T08:33:32.921Z,1.60
2022-10-02T08:37:46.724Z,1.90
2022-10-02T08:41:04.350Z,2.10
2022-10-02T08:45:02.511Z,1.60
2022-10-02T08:48:23.390Z,1.60
2022-10-02T08:52:16.702Z,1.50
2022-10-02T08:55:22.192Z,1.70
2022-10-02T08:59:12.883Z,2.00
2022-10-02T09:03:10.703Z,1.30
2022-10-02T09:06:48.776Z,0.90
2022-10-02T09:10:27.611Z,1.10
2022-10-02T09:14:10.402Z,1.30
2022-10-02T09:17:41.170Z,0.90
2022-10-02T09:21:12.735Z,1.30
2022-10-02T09:24:56.333Z,0.90
2022-10-02T09:28:01.342Z,0.80
2022-10-02T09:32:07.239Z,1.20
2022-10-02T09:35:49.066Z,1.00
2022-10-02T09:39:02.990Z,1.20
2022-10-02T09:42:57.402Z,0.70
2022-10-02T09:46:55.665Z,1.40
2022-10-02T09:50:28.784Z,2.30
2022-10-02T09:53:56.682Z,1.00
2022-10-02T09:57:28.565Z,1.00
2022-10-02T10:01:07.886Z,1.00
2022-10-02T10:05:06.034Z,0.70
2022-10-02T10:08:08.922Z,0.90
2022-10-02T10:12:15.271Z,1.40
2022-10-02T10:15:58.045Z,1.40
2022-10-02T10:19:34.860Z,0.60
2022-10-02T10:22:39.120Z,1.90
2022-10-02T10:30:09.990Z,1.70
2022-10-02T10:33:44.031Z,1.60
2022-10-02T10:37:26.866Z,1.00
2022-10-02T10:41:20.059Z,1.00
2022-10-02T10:44:25.930Z,1.10
2022-10-02T10:48:14.822Z,1.10
2022-10-02T10:51:54.625Z,1.80
2022-10-02T10:55:15.580Z,1.00
2022-10-02T11:03:30.999Z,1.00
2022-10-02T11:06:43.968Z,1.00
2022-10-02T11:10:23.806Z,0.80
2022-10-02T11:14:05.850Z,1.10
2022-10-02T11:17:48.559Z,1.20
2022-10-02T11:21:16.232Z,1.00
2022-10-02T11:24:56.812Z,1.10
2022-10-02T11:28:39.760Z,0.90
2022-10-02T11:32:14.561Z,0.70
2022-10-02T11:35:52.239Z,0.70
2022-10-02T11:39:28.697Z,0.90
2022-10-02T11:42:57.465Z,0.50
2022-10-02T11:46:40.767Z,0.90
2022-10-02T11:50:11.507Z,1.30
2022-10-02T11:53:38.516Z,0.90
2022-10-02T11:57:22.948Z,0.90
2022-10-02T12:01:17.669Z,1.00
2022-10-02T12:04:37.189Z,0.90
2022-10-02T12:08:08.183Z,0.80
2022-10-02T12:11:47.724Z,1.00
2022-10-02T12:15:47.805Z,1.00
2022-10-02T12:18:56.818Z,1.00
2022-10-02T12:22:59.176Z,0.80
2022-10-02T12:26:31.931Z,0.60
2022-10-02T12:30:19.235Z,0.80
2022-10-02T12:33:21.620Z,0.90
2022-10-02T12:37:06.445Z,0.70
2022-10-02T12:41:10.053Z,0.70
2022-10-02T12:44:58.444Z,0.70
2022-10-02T12:48:07.387Z,0.90
2022-10-02T12:51:39.921Z,0.80
2022-10-02T12:55:40.936Z,1.00
2022-10-02T12:58:55.565Z,1.10
2022-10-02T13:03:00.305Z,1.10
2022-10-02T13:06:23.890Z,0.70
2022-10-02T13:09:48.825Z,1.70
2022-10-02T13:13:42.683Z,0.60
2022-10-02T13:17:10.443Z,1.00
2022-10-02T13:20:39.177Z,0.50
2022-10-02T13:24:24.781Z,1.00
2022-10-02T13:28:22.735Z,1.50
2022-10-02T13:31:47.347Z,0.90
2022-10-02T13:35:36.946Z,1.10
2022-10-02T13:39:04.012Z,0.90
2022-10-02T13:42:53.250Z,1.30
2022-10-02T13:46:19.018Z,1.30
2022-10-02T13:50:12.213Z,1.20
2022-10-02T13:53:36.063Z,1.50
2022-10-02T13:57:23.722Z,1.10
2022-10-02T14:00:37.496Z,0.90
2022-10-02T14:04:15.439Z,1.20
2022-10-02T14:07:52.018Z,0.90
2022-10-02T14:11:33.332Z,0.90
2022-10-02T14:15:10.425Z,1.20
2022-10-02T14:19:03.937Z,0.80
2022-10-02T14:22:36.616Z,1.10
2022-10-02T14:25:49.266Z,0.90
2022-10-02T14:29:49.810Z,1.20
2022-10-02T14:33:30.091Z,1.50
2022-10-02T14:37:05.331Z,0.90
2022-10-02T14:40:19.604Z,1.60
2022-10-02T14:44:06.153Z,0.90
2022-10-02T14:48:07.655Z,0.80
2022-10-02T14:51:44.472Z,0.70
2022-10-02T14:55:16.356Z,1.20
2022-10-02T14:58:35.915Z,1.30
2022-10-02T15:02:10.223Z,0.80
2022-10-02T15:05:35.048Z,1.70
2022-10-02T15:09:30.597Z,0.90
2022-10-02T15:12:51.685Z,1.00
2022-10-02T15:17:13.623Z,0.60
2022-10-02T15:20:54.517Z,1.80
2022-10-02T15:23:58.753Z,0.80
2022-10-02T15:28:24.351Z,0.90
2022-10-02T15:31:41.875Z,0.60
2022-10-02T15:35:05.438Z,1.30
2022-10-02T15:39:13.739Z,1.20
2022-10-02T15:42:37.625Z,0.70
2022-10-02T15:45:50.401Z,1.00
2022-10-02T15:49:45.763Z,0.80
2022-10-02T15:53:47.062Z,0.50
2022-10-02T15:57:08.603Z,0.90
2022-10-02T16:00:24.295Z,1.40
2022-10-02T16:04:15.355Z,1.50
2022-10-02T16:07:48.010Z,2.00
2022-10-02T16:11:48.370Z,1.30
2022-10-02T16:15:26.517Z,1.00
2022-10-02T16:18:52.204Z,0.60
2022-10-02T16:22:18.316Z,1.10
2022-10-02T16:25:52.394Z,1.00
2022-10-02T16:29:32.868Z,1.60
2022-10-02T16:33:29.399Z,1.30
2022-10-02T16:36:32.286Z,1.00
2022-10-02T16:40:42.807Z,0.90
2022-10-02T16:43:48.863Z,1.00
2022-10-02T16:47:50.544Z,1.30
2022-10-02T16:51:36.292Z,1.30
2022-10-02T16:55:10.977Z,1.90
2022-10-02T16:58:26.467Z,1.90
2022-10-02T17:02:19.245Z,1.80
2022-10-02T17:06:00.855Z,2.30
2022-10-02T17:09:23.207Z,2.50
2022-10-02T17:13:33.277Z,1.40
2022-10-02T17:18:09.788Z,1.60
2022-10-02T17:22:25.032Z,1.90
2022-10-02T17:26:35.642Z,2.30
2022-10-02T17:30:55.473Z,1.50
2022-10-02T17:34:59.550Z,1.60
2022-10-02T17:39:04.492Z,2.10
2022-10-02T17:43:25.193Z,1.90
2022-10-02T17:47:38.320Z,1.70
2022-10-02T17:51:58.619Z,1.10
2022-10-02T17:56:33.293Z,1.30
2022-10-02T18:00:36.047Z,1.60
2022-10-02T18:04:50.873Z,1.70
2022-10-02T18:09:24.412Z,2.10
2022-10-02T18:14:21.494Z,1.70
2022-10-02T18:18:44.196Z,1.80
2022-10-02T18:22:50.581Z,2.00
2022-10-02T18:27:18.761Z,1.70
2022-10-02T18:31:55.132Z,2.80
2022-10-02T18:36:28.035Z,3.20
2022-10-02T18:40:46.304Z,3.00
2022-10-02T18:45:28.278Z,2.40
2022-10-02T18:50:04.375Z,2.00
2022-10-02T18:54:11.004Z,2.10
2022-10-02T18:58:27.626Z,2.50
2022-10-02T19:02:28.942Z,2.60
2022-10-02T19:06:35.583Z,2.00
2022-10-02T19:10:34.786Z,2.30
2022-10-02T19:14:41.738Z,2.30
2022-10-02T19:19:12.408Z,2.80
2022-10-02T19:23:23.432Z,2.90
2022-10-02T19:27:37.953Z,3.30
2022-10-02T19:31:39.994Z,2.40
2022-10-02T19:35:44.586Z,1.90
2022-10-02T19:39:51.128Z,2.30
2022-10-02T19:44:00.583Z,3.30
2022-10-02T19:48:18.219Z,3.70
2022-10-02T19:52:36.153Z,2.70
2022-10-02T19:56:43.727Z,2.90
2022-10-02T20:00:42.837Z,2.30
2022-10-02T20:04:41.493Z,2.40
2022-10-02T20:08:45.320Z,2.60
2022-10-02T20:13:40.508Z,2.90
2022-10-02T20:17:39.564Z,2.40
2022-10-02T20:21:42.713Z,3.20
2022-10-02T20:25:51.144Z,3.00
2022-10-02T20:29:56.122Z,2.50
2022-10-02T20:34:01.930Z,1.50
2022-10-02T20:38:31.785Z,2.10
2022-10-02T20:43:25.762Z,2.40
2022-10-02T20:47:49.185Z,3.20
2022-10-02T20:52:15.946Z,1.60
2022-10-02T20:56:25.817Z,3.60
2022-10-02T21:00:29.074Z,3.70
2022-10-02T21:05:10.436Z,2.50
2022-10-02T21:09:35.732Z,2.60
2022-10-02T21:14:07.556Z,1.80
2022-10-02T21:18:48.127Z,2.30
2022-10-02T21:23:09.239Z,2.30
2022-10-02T21:27:07.874Z,2.40
2022-10-02T21:31:15.643Z,2.10
2022-10-02T21:35:39.225Z,2.00
2022-10-02T21:39:55.752Z,2.70
2022-10-02T21:44:23.676Z,1.60
2022-10-02T21:48:51.484Z,0.70
2022-10-02T21:53:26.579Z,0.70
2022-10-02T21:57:49.833Z,0.80
2022-10-02T22:02:28.305Z,0.60
2022-10-02T22:06:51.168Z,1.00
2022-10-02T22:11:09.835Z,0.80
2022-10-02T22:15:12.165Z,0.80
2022-10-02T22:19:32.601Z,0.80
2022-10-02T22:23:59.641Z,0.70
2022-10-02T22:28:22.794Z,0.70
2022-10-02T22:33:08.931Z,0.70
2022-10-02T22:38:00.567Z,0.50
2022-10-02T22:42:20.769Z,0.50
2022-10-02T22:46:47.923Z,0.40
2022-10-02T22:50:58.343Z,0.50
2022-10-02T22:55:07.075Z,0.70
2022-10-02T22:59:22.498Z,0.70
2022-10-02T23:03:47.054Z,0.50
2022-10-02T23:08:06.105Z,0.50
2022-10-02T23:12:16.464Z,0.70
2022-10-02T23:16:35.416Z,1.00
2022-10-02T23:20:44.659Z,0.90
2022-10-02T23:25:16.159Z,1.10
2022-10-02T23:29:35.564Z,0.60
2022-10-02T23:33:56.733Z,0.70
2022-10-02T23:38:04.746Z,1.20
2022-10-02T23:42:09.451Z,1.10
2022-10-02T23:46:15.194Z,0.90
2022-10-02T23:50:48.948Z,0.90
2022-10-02T23:55:14.276Z,1.00
2022-10-02T23:59:26.401Z,0.80
